Time;durP1;ratioP1;P1;durP2;ratioP2;P2;SDS_P1;SDS_P2;PMS_P1;PMS_P2;Temp;Humidity;BMP_temperature;BMP_pressure;BME280_temperature;BME280_humidity;BME280_pressure;Samples;Min_cycle;Max_cycle;Signal;HPM_P1;HPM_P2
2021/01/11 00:01:09;;;;;;;31.38;16.00;;;0.70;99.90;;;;;;5043201;28;20026;-85
2021/01/11 00:06:17;;;;;;;31.23;16.58;;;0.60;99.90;;;;;;5436578;22;19912;-87
2021/01/11 00:08:54;;;;;;;28.17;15.68;;;;;;;;;;5521530;23;20034;-84
2021/01/11 00:14:30;;;;;;;28.58;15.52;;;;;;;;;;5356107;22;20061;-86
2021/01/11 00:17:27;;;;;;;28.95;14.45;;;0.50;99.90;;;;;;5040568;28;20040;-86
2021/01/11 00:22:54;;;;;;;31.13;15.77;;;0.50;99.90;;;;;;5017682;23;20059;-85
2021/01/11 00:25:27;;;;;;;28.40;14.25;;;;;;;;;;5017554;28;20057;-85
2021/01/11 00:28:22;;;;;;;25.27;14.88;;;0.50;99.90;;;;;;5022117;28;20017;-85
2021/01/11 00:34:38;;;;;;;27.08;14.32;;;0.60;99.90;;;;;;4948989;26;20084;-86
2021/01/11 00:37:28;;;;;;;26.00;13.98;;;0.60;99.90;;;;;;5061162;28;20048;-85
2021/01/11 00:40:32;;;;;;;26.55;14.73;;;0.60;99.90;;;;;;5024283;28;20048;-83
2021/01/11 00:46:29;;;;;;;28.63;14.32;;;0.60;99.90;;;;;;5174268;22;20049;-85
2021/01/11 00:49:16;;;;;;;26.80;14.27;;;0.70;99.90;;;;;;5081326;28;20125;-86
2021/01/11 00:52:05;;;;;;;23.50;13.05;;;;;;;;;;5064378;28;20682;-85
2021/01/11 00:57:33;;;;;;;27.73;14.63;;;0.80;99.90;;;;;;5352552;22;20040;-84
2021/01/11 01:03:53;;;;;;;26.17;14.23;;;0.70;99.90;;;;;;4651298;26;20061;-85
2021/01/11 01:06:30;;;;;;;27.80;16.02;;;0.80;99.90;;;;;;5060725;28;20033;-85
2021/01/11 01:09:08;;;;;;;26.45;15.30;;;0.80;99.90;;;;;;5058537;28;20057;-83
2021/01/11 01:12:05;;;;;;;24.58;14.00;;;0.90;99.90;;;;;;5030219;28;20046;-85
2021/01/11 01:14:49;;;;;;;25.83;13.70;;;;;;;;;;5044465;28;20029;-84
2021/01/11 01:20:02;;;;;;;25.20;14.25;;;;;;;;;;4852875;26;20053;-84
2021/01/11 01:22:53;;;;;;;29.95;15.02;;;1.00;99.90;;;;;;5039367;28;20022;-84
2021/01/11 01:28:53;;;;;;;24.35;13.98;;;1.00;99.90;;;;;;5246413;22;20056;-84
2021/01/11 01:40:36;;;;;;;20.30;13.23;;;1.00;99.90;;;;;;5595508;23;20049;-85
2021/01/11 01:43:03;;;;;;;21.17;12.40;;;;;;;;;;5043333;28;20029;-85
2021/01/11 01:45:32;;;;;;;22.25;13.40;;;;;;;;;;5215503;23;20053;-84
2021/01/11 01:48:20;;;;;;;19.80;12.27;;;1.10;99.90;;;;;;5058838;28;20018;-84
2021/01/11 01:51:16;;;;;;;24.98;13.32;;;1.20;99.90;;;;;;5186387;23;20038;-84
2021/01/11 01:53:59;;;;;;;23.35;13.32;;;;;;;;;;5318713;23;20069;-83
2021/01/11 01:59:35;;;;;;;22.58;13.10;;;1.10;99.90;;;;;;5658104;23;20046;-85
2021/01/11 02:02:07;;;;;;;18.40;11.55;;;1.10;99.90;;;;;;4997214;28;20015;-83
2021/01/11 02:04:59;;;;;;;20.10;12.18;;;1.20;99.90;;;;;;5094683;23;20112;-84
2021/01/11 02:08:02;;;;;;;20.15;11.88;;;1.20;99.90;;;;;;5057281;28;20044;-83
2021/01/11 02:10:53;;;;;;;20.08;11.73;;;1.20;99.90;;;;;;5034823;28;20018;-82
2021/01/11 02:14:27;;;;;;;19.02;10.80;;;1.20;99.90;;;;;;5049967;28;20033;-82
2021/01/11 02:17:05;;;;;;;19.20;11.18;;;1.20;99.90;;;;;;5014222;28;20057;-84
2021/01/11 02:20:23;;;;;;;21.40;11.15;;;1.20;99.90;;;;;;5054931;28;20038;-84
2021/01/11 02:23:38;;;;;;;20.80;11.68;;;1.20;99.90;;;;;;4992612;28;20023;-83
2021/01/11 02:28:50;;;;;;;18.90;11.90;;;;;;;;;;4985665;26;20048;-84
2021/01/11 02:33:58;;;;;;;19.30;10.95;;;1.30;99.90;;;;;;4906070;22;20029;-84
2021/01/11 02:39:03;;;;;;;16.98;10.40;;;;;;;;;;5565821;23;20037;-84
2021/01/11 02:41:32;;;;;;;21.23;11.05;;;1.30;99.90;;;;;;5060659;23;20026;-84
2021/01/11 02:44:16;;;;;;;20.88;11.57;;;1.30;99.90;;;;;;5048816;28;20026;-85
2021/01/11 02:46:48;;;;;;;18.00;11.25;;;1.40;99.90;;;;;;5184103;22;20053;-84
2021/01/11 02:49:40;;;;;;;22.25;11.05;;;1.30;99.90;;;;;;5079119;28;20055;-83
2021/01/11 02:55:28;;;;;;;18.58;10.80;;;1.50;99.90;;;;;;4112293;23;20111;-83
2021/01/11 02:58:33;;;;;;;17.17;10.65;;;1.30;99.90;;;;;;5684069;23;20097;-83
2021/01/11 03:04:10;;;;;;;19.63;12.30;;;1.30;99.90;;;;;;5463718;22;20643;31
2021/01/11 03:06:39;;;;;;;20.15;11.15;;;1.30;99.90;;;;;;5134059;23;20096;-83
2021/01/11 03:15:14;;;;;;;20.65;10.32;;;1.20;99.90;;;;;;5071246;23;20048;-84
2021/01/11 03:18:24;;;;;;;16.38;10.32;;;1.30;99.90;;;;;;5059256;23;20232;-84
2021/01/11 03:21:10;;;;;;;19.80;11.85;;;;;;;;;;5037096;28;20042;-84
2021/01/11 03:23:38;;;;;;;21.35;10.93;;;1.30;99.90;;;;;;5020612;28;20120;-84
2021/01/11 03:26:18;;;;;;;18.77;11.32;;;1.20;99.90;;;;;;5023638;28;20026;-85
2021/01/11 03:28:52;;;;;;;19.52;11.82;;;;;;;;;;5021590;28;20017;-85
2021/01/11 03:31:28;;;;;;;17.85;10.07;;;1.20;99.90;;;;;;5018948;28;20022;-83
2021/01/11 03:34:19;;;;;;;21.27;12.55;;;;;;;;;;5022832;28;20050;-84
2021/01/11 03:37:08;;;;;;;;;;;1.30;99.90;;;;;;5019439;28;20029;-83
2021/01/11 03:45:01;;;;;;;16.60;11.65;;;1.40;99.90;;;;;;5716012;23;20033;-83
2021/01/11 03:47:31;;;;;;;18.30;11.15;;;;;;;;;;5046512;28;20065;-84
2021/01/11 03:50:05;;;;;;;17.05;11.32;;;1.30;99.90;;;;;;5052205;23;20038;-84
2021/01/11 03:52:49;;;;;;;18.90;10.88;;;1.20;99.90;;;;;;5100356;23;20039;-84
2021/01/11 03:55:25;;;;;;;19.52;11.80;;;;;;;;;;5204640;23;20081;-84
2021/01/11 04:17:14;;;;;;;21.60;11.52;;;1.00;99.90;;;;;;5439852;23;20037;-84
2021/01/11 04:20:21;;;;;;;18.23;10.73;;;1.00;99.90;;;;;;5165261;23;20939;-83
2021/01/11 04:22:54;;;;;;;21.83;12.27;;;0.90;99.90;;;;;;4999373;28;20038;-82
2021/01/11 04:25:28;;;;;;;19.17;11.55;;;;;;;;;;5012020;28;20014;-84
2021/01/11 04:30:45;;;;;;;18.58;11.90;;;1.00;99.90;;;;;;3249040;26;20043;-83
2021/01/11 04:33:15;;;;;;;17.15;12.02;;;;;;;;;;4979166;28;20018;-83
2021/01/11 04:35:49;;;;;;;19.45;11.48;;;1.00;99.90;;;;;;4998857;28;20019;-82
2021/01/11 04:38:37;;;;;;;21.23;12.10;;;;;;;;;;5009836;28;20027;-84
2021/01/11 04:41:23;;;;;;;19.98;11.65;;;1.00;99.90;;;;;;5137786;23;20050;-83
2021/01/11 04:46:26;;;;;;;21.10;13.05;;;;;;;;;;5105739;22;20046;-83
2021/01/11 04:49:20;;;;;;;20.42;12.02;;;1.00;99.90;;;;;;5005264;28;20042;-83
2021/01/11 04:52:18;;;;;;;19.40;11.85;;;1.00;99.90;;;;;;5076693;23;20050;-84
2021/01/11 04:57:42;;;;;;;23.20;14.10;;;1.00;99.90;;;;;;5054585;28;20034;-83
2021/01/11 05:00:30;;;;;;;20.08;12.57;;;1.00;99.90;;;;;;5051073;28;20086;-84
2021/01/11 05:03:07;;;;;;;22.25;12.57;;;;;;;;;;5323796;23;20066;-86
2021/01/11 05:06:26;;;;;;;23.20;13.30;;;1.10;99.90;;;;;;5037097;28;20104;-83
2021/01/11 05:09:22;;;;;;;20.70;12.98;;;1.10;99.90;;;;;;5245234;22;20034;-84
2021/01/11 05:11:49;;;;;;;20.90;12.85;;;;;;;;;;5036716;28;20030;-85
2021/01/11 05:14:28;;;;;;;21.70;12.52;;;;;;;;;;5047239;28;20018;-84
2021/01/11 05:17:28;;;;;;;22.58;11.70;;;1.20;99.90;;;;;;5046088;28;20028;-83
2021/01/11 05:20:08;;;;;;;22.17;12.65;;;1.20;99.90;;;;;;5033604;28;20052;-83
2021/01/11 05:22:47;;;;;;;19.20;12.27;;;1.20;99.90;;;;;;5057995;28;20029;-84
2021/01/11 05:28:12;;;;;;;21.30;12.43;;;1.10;99.90;;;;;;4201119;22;20055;-82
2021/01/11 05:31:21;;;;;;;21.48;12.75;;;1.20;99.90;;;;;;5038172;28;20038;-82
2021/01/11 05:33:53;;;;;;;21.15;12.68;;;1.10;99.90;;;;;;5045520;28;20098;-83
2021/01/11 05:36:33;;;;;;;22.27;13.57;;;1.10;99.90;;;;;;5059805;28;20021;-82
2021/01/11 05:39:17;;;;;;;26.63;14.23;;;1.20;99.90;;;;;;5048092;28;20022;-85
2021/01/11 05:42:25;;;;;;;22.20;13.18;;;1.20;99.90;;;;;;5035986;28;20018;-85
2021/01/11 05:45:48;;;;;;;19.27;12.38;;;1.10;99.90;;;;;;5038176;28;20033;-83
2021/01/11 05:48:27;;;;;;;18.92;11.68;;;1.10;99.90;;;;;;5063016;23;20058;-83
2021/01/11 05:51:11;;;;;;;21.17;12.30;;;1.20;99.90;;;;;;5030514;28;20074;-82
2021/01/11 05:53:57;;;;;;;20.85;12.88;;;1.20;99.90;;;;;;5037011;28;20057;-86
2021/01/11 05:57:32;;;;;;;19.70;12.32;;;1.20;99.90;;;;;;5027329;28;20041;-84
2021/01/11 06:00:17;;;;;;;20.70;13.05;;;;;;;;;;5086955;23;20032;-84
2021/01/11 06:02:44;;;;;;;25.10;14.32;;;;;;;;;;5099875;23;20079;-84
2021/01/11 06:05:37;;;;;;;21.42;12.40;;;1.00;99.90;;;;;;5062253;28;20044;-84
2021/01/11 06:08:22;;;;;;;19.38;12.35;;;1.00;99.90;;;;;;5064397;28;20043;-84
2021/01/11 06:11:11;;;;;;;21.27;13.38;;;0.90;99.90;;;;;;5046684;28;20025;-85
2021/01/11 06:13:51;;;;;;;20.08;12.43;;;1.00;99.90;;;;;;5043379;28;20112;-85
2021/01/11 06:19:05;;;;;;;20.13;11.90;;;1.10;99.90;;;;;;5101206;23;20037;-83
2021/01/11 06:25:03;;;;;;;19.58;12.35;;;1.10;99.90;;;;;;5515567;22;20025;-84
2021/01/11 06:27:32;;;;;;;19.60;12.48;;;;;;;;;;5056249;28;20072;-83
2021/01/11 06:30:07;;;;;;;20.88;13.48;;;0.90;99.90;;;;;;5049809;28;20021;-84
2021/01/11 06:32:43;;;;;;;20.85;12.70;;;1.00;99.90;;;;;;5046629;28;20045;-81
2021/01/11 06:35:13;;;;;;;20.75;12.65;;;1.00;99.90;;;;;;5110557;23;20129;-81
2021/01/11 06:38:24;;;;;;;21.17;13.30;;;1.00;99.90;;;;;;5044676;28;20041;-82
2021/01/11 06:41:50;;;;;;;21.75;12.80;;;1.00;99.90;;;;;;5020596;28;20070;-82
2021/01/11 06:44:26;;;;;;;22.15;12.73;;;1.10;99.90;;;;;;4991601;28;20038;-82
2021/01/11 06:47:28;;;;;;;19.08;12.48;;;1.10;99.90;;;;;;5279460;23;20039;-84
2021/01/11 06:50:10;;;;;;;21.30;12.07;;;1.00;99.90;;;;;;5036118;28;20033;-83
2021/01/11 06:52:40;;;;;;;20.00;12.45;;;1.00;99.90;;;;;;5026956;28;21630;-83
2021/01/11 06:55:52;;;;;;;17.33;10.90;;;0.90;99.90;;;;;;5308787;22;20016;-82
2021/01/11 06:58:25;;;;;;;17.90;11.02;;;1.00;99.90;;;;;;5034098;28;20074;-85
2021/01/11 07:01:06;;;;;;;18.65;11.45;;;0.90;99.90;;;;;;5034580;28;20065;-84
2021/01/11 07:03:55;;;;;;;21.50;12.25;;;;;;;;;;5017963;28;20030;-85
2021/01/11 07:06:43;;;;;;;17.35;12.13;;;1.00;99.90;;;;;;5034445;28;20036;-81
2021/01/11 07:09:40;;;;;;;18.58;10.98;;;1.00;99.90;;;;;;5035053;28;20042;-81
2021/01/11 07:12:36;;;;;;;18.00;11.25;;;1.00;99.90;;;;;;5026059;28;20073;-80
2021/01/11 07:15:15;;;;;;;22.10;13.60;;;1.10;99.90;;;;;;5446014;22;20050;-83
2021/01/11 07:17:43;;;;;;;23.00;13.55;;;1.00;99.90;;;;;;5045848;28;20078;-83
2021/01/11 07:20:13;;;;;;;23.55;14.07;;;1.10;99.90;;;;;;5017278;28;20026;-80
2021/01/11 07:22:47;;;;;;;22.40;12.77;;;1.10;99.90;;;;;;5029465;28;20531;-83
2021/01/11 07:25:21;;;;;;;22.92;12.02;;;1.20;99.90;;;;;;5020574;28;20030;-82
2021/01/11 07:28:04;;;;;;;19.25;11.82;;;;;;;;;;5036331;28;20034;-82
2021/01/11 07:30:38;;;;;;;;;;;1.10;99.90;;;;;;5034050;28;20022;-83
2021/01/11 07:33:11;;;;;;;20.42;12.38;;;1.20;99.90;;;;;;5034476;28;19936;-82
2021/01/11 07:35:41;;;;;;;16.90;10.48;;;;;;;;;;5032546;28;20018;-83
2021/01/11 07:38:13;;;;;;;17.40;10.52;;;1.20;99.90;;;;;;5034378;28;20030;-82
2021/01/11 07:40:40;;;;;;;18.88;11.45;;;;;;;;;;5014185;28;20038;-81
2021/01/11 07:43:06;;;;;;;19.98;11.80;;;;;;;;;;5024139;28;20037;-82
2021/01/11 07:45:32;;;;;;;18.30;11.07;;;;;;;;;;5037353;28;20018;-84
2021/01/11 07:47:58;;;;;;;16.58;10.25;;;;;;;;;;5036751;28;20033;-84
2021/01/11 07:50:30;;;;;;;16.55;10.50;;;;;;;;;;5034111;28;20065;-83
2021/01/11 07:52:57;;;;;;;17.95;9.77;;;;;;;;;;5036067;28;20022;-85
2021/01/11 07:55:33;;;;;;;17.00;10.20;;;1.20;99.90;;;;;;5031113;28;20049;-82
2021/01/11 07:58:08;;;;;;;17.98;10.65;;;1.30;99.90;;;;;;5066596;22;20093;-82
2021/01/11 08:00:35;;;;;;;19.05;11.55;;;;;;;;;;5055717;28;20109;-80
2021/01/11 08:03:03;;;;;;;17.25;10.48;;;1.20;99.90;;;;;;5057756;28;20009;-82
2021/01/11 08:05:32;;;;;;;18.08;11.75;;;;;;;;;;5057901;28;20013;-82
2021/01/11 08:08:08;;;;;;;18.63;10.57;;;;;;;;;;5057664;28;20030;-81
2021/01/11 08:10:37;;;;;;;19.83;11.13;;;1.40;99.90;;;;;;5056742;28;20063;-82
2021/01/11 08:13:07;;;;;;;22.02;12.07;;;;;;;;;;5057482;28;20053;-82
2021/01/11 08:15:39;;;;;;;18.33;11.60;;;1.40;99.90;;;;;;5053884;28;20029;-82
2021/01/11 08:18:32;;;;;;;22.75;13.15;;;1.50;99.90;;;;;;5053184;28;20042;-82
2021/01/11 08:21:09;;;;;;;20.75;11.60;;;1.50;99.90;;;;;;5070603;28;20033;-81
2021/01/11 08:23:39;;;;;;;22.85;13.15;;;1.60;99.90;;;;;;5055360;28;20099;-82
2021/01/11 08:26:12;;;;;;;20.17;12.15;;;1.60;99.90;;;;;;5055891;28;20032;-80
2021/01/11 08:28:46;;;;;;;18.08;11.05;;;1.60;99.90;;;;;;5039682;28;20025;-81
2021/01/11 08:31:12;;;;;;;16.77;10.30;;;;;;;;;;5055160;28;20128;-80
2021/01/11 08:33:49;;;;;;;19.77;10.73;;;1.60;99.90;;;;;;5057889;28;20816;-81
2021/01/11 08:36:25;;;;;;;19.13;11.10;;;1.60;99.90;;;;;;5180343;22;20029;-82
2021/01/11 08:39:25;;;;;;;20.10;10.85;;;1.60;99.90;;;;;;5034043;28;20362;-80
2021/01/11 08:41:54;;;;;;;21.40;12.27;;;;;;;;;;5019467;28;20278;-81
2021/01/11 08:44:37;;;;;;;18.00;11.18;;;1.50;99.90;;;;;;5034575;28;20034;-81
2021/01/11 08:47:37;;;;;;;18.63;10.50;;;1.50;99.90;;;;;;5033854;28;20038;-80
2021/01/11 08:50:07;;;;;;;23.33;13.02;;;1.50;99.90;;;;;;5027851;28;20030;-77
2021/01/11 08:52:36;;;;;;;20.05;11.63;;;1.70;99.90;;;;;;5046937;28;20041;-82
2021/01/11 08:55:09;;;;;;;21.23;12.18;;;1.70;99.90;;;;;;5029171;28;20029;-79
2021/01/11 08:57:38;;;;;;;20.90;13.43;;;2.90;99.90;;;;;;5023914;28;20034;-83
2021/01/11 09:00:12;;;;;;;20.13;12.52;;;1.80;99.90;;;;;;5026638;28;20034;-82
2021/01/11 09:02:49;;;;;;;25.83;15.75;;;1.90;99.90;;;;;;5029206;28;20025;-80
2021/01/11 09:05:23;;;;;;;20.35;13.18;;;1.80;99.90;;;;;;5024803;28;20417;-80
2021/01/11 09:07:52;;;;;;;26.48;15.95;;;1.90;99.90;;;;;;5032932;28;20041;-83
2021/01/11 09:10:49;;;;;;;24.48;15.13;;;1.90;99.90;;;;;;5038062;28;20037;-83
2021/01/11 09:33:09;;;;;;;17.88;11.70;;;2.00;99.90;;;;;;5037721;28;20013;-83
2021/01/11 09:36:05;;;;;;;16.77;10.65;;;2.00;99.90;;;;;;5038299;28;20030;-84
2021/01/11 09:38:37;;;;;;;16.52;9.50;;;2.00;99.90;;;;;;5040207;28;20030;-83
2021/01/11 09:41:12;;;;;;;14.93;9.38;;;2.10;99.90;;;;;;5022804;28;20057;-82
2021/01/11 09:44:00;;;;;;;17.45;10.07;;;2.20;99.90;;;;;;5038523;28;20482;-83
2021/01/11 09:46:54;;;;;;;18.67;9.05;;;2.20;99.90;;;;;;5021553;28;20026;-83
2021/01/11 09:49:49;;;;;;;15.95;9.13;;;2.20;99.90;;;;;;5007367;28;20082;-84
2021/01/11 09:53:01;;;;;;;14.27;8.63;;;2.20;99.90;;;;;;5040010;28;20017;-84
2021/01/11 09:56:23;;;;;;;15.27;9.00;;;2.20;99.90;;;;;;5037419;28;20022;-83
2021/01/11 09:59:18;;;;;;;16.02;10.30;;;2.20;99.90;;;;;;5022647;28;20056;-83
2021/01/11 10:01:58;;;;;;;13.05;7.93;;;;;;;;;;5037888;28;20044;-83
2021/01/11 10:05:16;;;;;;;14.25;8.15;;;2.20;99.90;;;;;;5022593;28;20018;-83
2021/01/11 10:08:04;;;;;;;15.55;8.95;;;2.30;99.90;;;;;;5039196;28;20030;-84
2021/01/11 10:11:06;;;;;;;16.23;8.82;;;2.20;99.90;;;;;;5020867;28;20026;-83
2021/01/11 10:14:07;;;;;;;12.93;7.82;;;2.30;99.90;;;;;;5019324;28;20053;-84
2021/01/11 10:16:52;;;;;;;11.88;8.10;;;2.30;99.90;;;;;;5004938;28;20053;-84
2021/01/11 10:25:00;;;;;;;12.27;8.10;;;2.30;99.90;;;;;;5945854;22;19929;-83
2021/01/11 10:27:36;;;;;;;11.10;7.63;;;;;;;;;;5077049;28;20091;-84
2021/01/11 10:30:11;;;;;;;12.02;7.32;;;2.20;99.90;;;;;;5061038;28;20084;-83
2021/01/11 10:33:06;;;;;;;10.68;7.78;;;2.40;99.90;;;;;;5078089;28;20061;-84
2021/01/11 10:51:49;;;;;;;13.77;7.53;;;2.50;99.90;;;;;;5379932;22;20061;-82
2021/01/11 10:55:02;;;;;;;11.43;7.05;;;2.60;99.90;;;;;;5027119;28;20045;-83
2021/01/11 11:00:16;;;;;;;12.55;8.23;;;;;;;;;;5267871;22;20038;-84
2021/01/11 11:02:44;;;;;;;12.68;7.45;;;;;;;;;;5016942;28;20030;-83
2021/01/11 11:05:17;;;;;;;13.32;7.38;;;2.60;99.90;;;;;;5000434;28;20030;-84
2021/01/11 11:07:44;;;;;;;9.95;6.72;;;;;;;;;;4988703;28;20045;-83
2021/01/11 11:10:15;;;;;;;11.25;7.13;;;;;;;;;;5031493;28;20494;-79
2021/01/11 11:12:42;;;;;;;11.73;7.60;;;;;;;;;;5016880;28;20052;-77
2021/01/11 11:15:08;;;;;;;11.38;7.30;;;2.50;99.90;;;;;;5013599;28;20394;-78
2021/01/11 11:17:33;;;;;;;11.85;7.35;;;2.50;99.90;;;;;;4996895;28;20052;-78
2021/01/11 11:19:59;;;;;;;12.05;8.38;;;2.40;99.90;;;;;;5014298;28;20022;-77
2021/01/11 11:22:25;;;;;;;11.18;7.00;;;2.30;99.90;;;;;;4996934;28;20042;-77
2021/01/11 11:24:51;;;;;;;12.07;7.47;;;2.40;99.90;;;;;;4997620;28;20133;-78
2021/01/11 11:27:18;;;;;;;10.15;6.93;;;2.40;99.90;;;;;;4999545;28;20057;-78
2021/01/11 11:29:45;;;;;;;12.73;7.43;;;;;;;;;;5019269;28;20429;-79
2021/01/11 11:32:11;;;;;;;13.75;7.30;;;2.40;99.90;;;;;;5017676;28;20059;-79
2021/01/11 11:34:37;;;;;;;12.07;7.75;;;2.30;99.90;;;;;;4999726;28;20508;-78
2021/01/11 11:37:06;;;;;;;12.30;7.53;;;2.30;99.90;;;;;;5019578;28;20113;-78
2021/01/11 11:39:31;;;;;;;12.27;7.32;;;2.40;99.90;;;;;;5017721;28;20084;-80
2021/01/11 11:42:00;;;;;;;12.40;7.40;;;2.40;99.90;;;;;;5017320;28;20394;-78
2021/01/11 11:44:26;;;;;;;9.88;6.55;;;2.40;99.90;;;;;;5019697;28;20026;-79
2021/01/11 11:46:53;;;;;;;33.17;18.15;;;2.40;99.90;;;;;;5011459;28;20034;-83
2021/01/11 11:49:20;;;;;;;18.15;10.82;;;2.40;99.90;;;;;;5035313;28;20091;-83
2021/01/11 11:51:52;;;;;;;25.10;16.75;;;;;;;;;;5029788;28;20013;-81
2021/01/11 11:54:17;;;;;;;12.65;7.63;;;2.40;99.90;;;;;;5023440;28;20030;-79
2021/01/11 11:56:43;;;;;;;11.85;7.25;;;2.30;99.90;;;;;;5017245;28;20394;-79
2021/01/11 11:59:11;;;;;;;14.95;8.30;;;2.40;99.90;;;;;;5021263;28;20053;-77
2021/01/11 12:01:38;;;;;;;11.55;7.28;;;2.40;99.90;;;;;;5005329;28;20021;-77
2021/01/11 12:04:04;;;;;;;11.43;7.22;;;2.40;99.90;;;;;;4996520;28;20068;-76
2021/01/11 12:06:46;;;;;;;12.73;7.00;;;2.40;99.90;;;;;;5009503;28;20018;-79
2021/01/11 12:09:21;;;;;;;12.70;7.80;;;2.50;99.90;;;;;;5030682;28;20034;-79
2021/01/11 12:11:51;;;;;;;14.05;8.45;;;2.40;99.90;;;;;;5004659;28;20026;-77
2021/01/11 12:14:18;;;;;;;14.70;8.00;;;;;;;;;;5017964;28;20036;-82
2021/01/11 12:16:48;;;;;;;11.45;7.35;;;2.40;99.90;;;;;;5000084;28;20400;-79
2021/01/11 12:19:14;;;;;;;19.23;11.05;;;;;;;;;;5036736;28;20026;-81
2021/01/11 12:21:40;;;;;;;16.80;9.48;;;2.40;99.90;;;;;;5009699;28;20026;-80
2021/01/11 12:24:09;;;;;;;14.00;8.93;;;2.50;99.90;;;;;;5008152;28;20030;-80
2021/01/11 12:26:42;;;;;;;12.40;8.15;;;2.90;99.90;;;;;;5020052;28;20034;-80
2021/01/11 12:29:08;;;;;;;13.13;7.55;;;;;;;;;;5003074;28;20535;-80
2021/01/11 12:31:34;;;;;;;15.50;8.35;;;2.90;99.90;;;;;;5002760;28;20033;-80
2021/01/11 12:34:00;;;;;;;9.68;6.10;;;2.80;99.90;;;;;;5015972;28;20026;-80
2021/01/11 12:36:28;;;;;;;9.18;6.28;;;2.70;99.90;;;;;;5021218;28;20469;-81
2021/01/11 12:38:56;;;;;;;10.27;7.75;;;2.70;99.90;;;;;;5021074;28;20109;-80
2021/01/11 12:41:23;;;;;;;12.82;7.28;;;2.70;99.90;;;;;;5020116;28;20037;-81
2021/01/11 12:43:49;;;;;;;9.90;6.57;;;2.70;99.90;;;;;;5002962;28;20026;-81
2021/01/11 12:46:16;;;;;;;11.35;7.38;;;2.70;99.90;;;;;;5017729;28;20104;-79
2021/01/11 12:48:43;;;;;;;10.82;7.00;;;2.50;99.90;;;;;;5015528;28;20030;-78
2021/01/11 12:51:16;;;;;;;13.50;9.07;;;2.60;99.90;;;;;;5021001;28;20049;-79
2021/01/11 12:53:48;;;;;;;12.25;8.52;;;2.60;99.90;;;;;;5013874;28;20029;-78
2021/01/11 12:56:28;;;;;;;11.65;7.82;;;2.70;99.90;;;;;;5016999;28;20044;-79
2021/01/11 12:58:55;;;;;;;11.32;6.65;;;2.60;99.90;;;;;;5020567;28;20030;-80
2021/01/11 13:01:23;;;;;;;10.57;6.63;;;2.60;99.90;;;;;;5021195;28;20018;-79
2021/01/11 13:03:50;;;;;;;10.88;6.80;;;2.50;99.90;;;;;;5019502;28;20025;-79
2021/01/11 13:06:43;;;;;;;11.57;7.07;;;2.50;99.90;;;;;;5019851;28;20041;-78
2021/01/11 13:09:10;;;;;;;9.93;6.28;;;2.50;99.90;;;;;;5005379;28;20049;-81
2021/01/11 13:11:41;;;;;;;11.38;7.95;;;2.50;99.90;;;;;;5000407;28;20554;-79
2021/01/11 13:14:07;;;;;;;10.40;6.50;;;2.50;99.90;;;;;;5016702;28;20042;-80
2021/01/11 13:16:35;;;;;;;12.82;7.13;;;2.50;99.90;;;;;;4987957;28;20034;-80
2021/01/11 13:19:03;;;;;;;13.23;6.85;;;2.50;99.90;;;;;;5010805;28;20090;-82
2021/01/11 13:21:29;;;;;;;13.10;7.03;;;2.40;99.90;;;;;;5013093;28;20025;-81
2021/01/11 13:23:55;;;;;;;11.95;7.25;;;2.50;99.90;;;;;;5016247;28;20083;-80
2021/01/11 13:26:23;;;;;;;12.82;7.80;;;2.10;99.90;;;;;;5004436;28;20504;-81
2021/01/11 13:28:49;;;;;;;10.52;6.65;;;2.20;99.90;;;;;;5013826;28;20028;-82
2021/01/11 13:31:16;;;;;;;13.30;7.47;;;2.30;99.90;;;;;;5009980;28;20038;-79
2021/01/11 13:33:44;;;;;;;14.07;7.18;;;;;;;;;;5008375;28;20457;-79
2021/01/11 13:36:11;;;;;;;10.77;6.75;;;;;;;;;;5005248;28;20474;-80
2021/01/11 13:38:36;;;;;;;10.75;6.93;;;2.30;99.90;;;;;;5006300;28;20971;-79
2021/01/11 13:41:02;;;;;;;10.05;6.65;;;2.30;99.90;;;;;;5007375;28;20069;-80
2021/01/11 13:43:28;;;;;;;12.98;7.28;;;2.20;99.90;;;;;;5011103;28;20060;-78
2021/01/11 13:45:54;;;;;;;11.35;7.72;;;2.00;99.90;;;;;;5011221;28;20030;-79
2021/01/11 13:48:19;;;;;;;10.35;6.65;;;2.20;99.90;;;;;;5009182;28;20033;-79
2021/01/11 13:50:45;;;;;;;9.98;6.43;;;2.20;99.90;;;;;;5009784;28;20030;-78
2021/01/11 13:53:11;;;;;;;13.23;8.13;;;;;;;;;;5011430;28;20026;-78
2021/01/11 13:55:37;;;;;;;14.48;7.38;;;2.30;99.90;;;;;;5009631;28;20280;-78
2021/01/11 13:58:03;;;;;;;12.43;7.93;;;2.30;99.90;;;;;;4989654;28;20490;-79
2021/01/11 14:00:28;;;;;;;12.10;7.13;;;2.00;99.90;;;;;;4988750;28;20502;-79
2021/01/11 14:02:54;;;;;;;13.30;8.00;;;2.30;99.90;;;;;;5007491;28;20033;-79
2021/01/11 14:05:19;;;;;;;10.45;6.35;;;2.40;99.90;;;;;;4995556;28;20133;-78
2021/01/11 14:07:46;;;;;;;11.07;6.30;;;2.30;99.90;;;;;;4987218;28;20033;-78
2021/01/11 14:10:13;;;;;;;11.07;6.65;;;2.30;99.90;;;;;;5008758;28;20126;-79
2021/01/11 14:12:39;;;;;;;10.20;7.15;;;2.20;99.90;;;;;;5005146;28;20053;-78
2021/01/11 14:15:07;;;;;;;9.65;6.57;;;2.20;99.90;;;;;;5006078;28;20064;-78
2021/01/11 14:17:32;;;;;;;12.23;7.75;;;2.20;99.90;;;;;;5004820;28;20138;-78
2021/01/11 14:19:58;;;;;;;14.18;7.88;;;2.20;99.90;;;;;;5014826;28;20471;-78
2021/01/11 14:22:24;;;;;;;10.52;6.70;;;2.20;99.90;;;;;;5012899;28;20017;-80
2021/01/11 14:24:50;;;;;;;12.82;7.50;;;2.20;99.90;;;;;;5014459;28;20072;-78
2021/01/11 14:27:16;;;;;;;11.80;7.00;;;2.20;99.90;;;;;;5015183;28;20025;-79
2021/01/11 14:29:42;;;;;;;9.93;6.75;;;;;;;;;;5013223;28;20052;-79
2021/01/11 14:32:07;;;;;;;11.73;6.40;;;2.10;99.90;;;;;;5016727;28;20053;-79
2021/01/11 14:34:34;;;;;;;10.98;6.85;;;3.70;99.90;;;;;;5017968;28;20420;-79
2021/01/11 14:37:01;;;;;;;13.70;8.40;;;2.10;99.90;;;;;;5019061;28;20509;-80
2021/01/11 14:39:28;;;;;;;11.77;7.63;;;2.10;99.90;;;;;;5001165;28;20033;-79
2021/01/11 14:41:54;;;;;;;10.43;6.85;;;2.10;99.90;;;;;;5018619;28;20033;-80
2021/01/11 14:44:20;;;;;;;10.43;6.50;;;2.10;99.90;;;;;;4998965;28;20065;-79
2021/01/11 14:46:45;;;;;;;11.32;6.85;;;2.00;99.90;;;;;;5000029;28;20034;-79
2021/01/11 14:49:12;;;;;;;10.60;7.25;;;;;;;;;;4999849;28;20022;-79
2021/01/11 14:51:38;;;;;;;11.25;6.75;;;2.00;99.90;;;;;;5017421;28;20040;-80
2021/01/11 14:54:04;;;;;;;12.50;7.38;;;2.00;99.90;;;;;;5017224;28;20371;-80
2021/01/11 14:56:30;;;;;;;14.00;8.55;;;2.00;99.90;;;;;;5020723;28;20060;-79
2021/01/11 14:58:56;;;;;;;14.50;8.20;;;1.90;99.90;;;;;;5001786;28;20022;-80
2021/01/11 15:01:26;;;;;;;11.93;6.70;;;2.00;99.90;;;;;;5021383;28;20053;-79
2021/01/11 15:03:51;;;;;;;10.48;6.68;;;1.90;99.90;;;;;;5021304;28;20022;-80
2021/01/11 15:06:18;;;;;;;12.05;7.13;;;;;;;;;;5020779;28;20045;-79
2021/01/11 15:08:45;;;;;;;10.90;6.80;;;2.10;99.90;;;;;;5012990;28;20053;-79
2021/01/11 15:11:10;;;;;;;9.68;6.70;;;2.10;99.90;;;;;;4999243;28;20048;-80
2021/01/11 15:13:43;;;;;;;12.93;8.55;;;2.80;99.90;;;;;;4998940;28;20022;-81
2021/01/11 15:16:09;;;;;;;12.27;7.47;;;2.00;99.90;;;;;;4999958;28;20493;-82
2021/01/11 15:18:35;;;;;;;19.80;10.77;;;;;;;;;;5015088;28;20392;-80
2021/01/11 15:21:08;;;;;;;16.70;9.63;;;2.00;99.90;;;;;;5014902;28;20025;-80
2021/01/11 15:23:34;;;;;;;12.55;7.40;;;;;;;;;;4982230;28;20021;-80
2021/01/11 15:25:59;;;;;;;14.07;8.27;;;1.90;99.90;;;;;;5014679;28;20036;-79
2021/01/11 15:28:25;;;;;;;12.82;7.53;;;1.90;99.90;;;;;;5014513;28;20033;-79
2021/01/11 15:30:51;;;;;;;11.52;7.60;;;;;;;;;;5014301;28;20040;-79
2021/01/11 15:33:17;;;;;;;11.93;7.30;;;1.80;99.90;;;;;;5016435;28;20061;-81
2021/01/11 15:35:42;;;;;;;12.15;7.28;;;1.80;99.90;;;;;;5008844;28;20022;-81
2021/01/11 15:38:08;;;;;;;12.88;7.95;;;1.70;99.90;;;;;;5027837;28;20038;-82
2021/01/11 15:40:56;;;;;;;52.75;29.30;;;1.70;99.90;;;;;;5031713;28;20013;-83
2021/01/11 15:43:32;;;;;;;37.95;24.30;;;;;;;;;;5013088;28;20019;-84
2021/01/11 15:46:10;;;;;;;14.05;8.43;;;;;;;;;;4998954;28;20030;-82
2021/01/11 15:48:36;;;;;;;15.07;8.77;;;;;;;;;;5002211;28;20026;-80
2021/01/11 15:51:02;;;;;;;17.05;9.82;;;;;;;;;;5020676;28;20030;-79
2021/01/11 15:53:27;;;;;;;14.15;8.68;;;1.60;99.90;;;;;;5000599;28;20032;-79
2021/01/11 15:55:53;;;;;;;18.17;10.88;;;1.60;99.90;;;;;;5019888;28;20022;-79
2021/01/11 15:58:20;;;;;;;13.32;8.40;;;;;;;;;;5020567;28;20022;-80
2021/01/11 16:00:46;;;;;;;12.32;8.68;;;;;;;;;;5021086;28;20041;-81
2021/01/11 16:03:12;;;;;;;13.25;8.40;;;;;;;;;;5021575;28;20037;-79
2021/01/11 16:05:37;;;;;;;12.32;7.82;;;1.60;99.90;;;;;;5003421;28;20041;-80
2021/01/11 16:08:03;;;;;;;13.65;7.32;;;1.60;99.90;;;;;;5022215;28;20033;-79
2021/01/11 16:10:29;;;;;;;13.27;8.00;;;1.70;99.90;;;;;;5022185;28;20034;-79
2021/01/11 16:12:54;;;;;;;16.55;9.68;;;1.70;99.90;;;;;;5022440;28;20022;-79
2021/01/11 16:15:20;;;;;;;12.50;7.78;;;;;;;;;;5021482;28;20018;-80
2021/01/11 16:17:46;;;;;;;13.40;8.48;;;1.70;99.90;;;;;;5018270;28;20034;-79